sensor_id;sensor_type;location;lat;lon;timestamp;temperature;humidity
1680;DHT22;838;51.794;12.258;2023-12-07T00:01:26;4.00;69.70
1680;DHT22;838;51.794;12.258;2023-12-07T00:03:52;4.10;65.00
1680;DHT22;838;51.794;12.258;2023-12-07T00:06:17;4.20;63.00
1680;DHT22;838;51.794;12.258;2023-12-07T00:08:43;4.20;63.10
1680;DHT22;838;51.794;12.258;2023-12-07T00:11:09;4.20;63.10
1680;DHT22;838;51.794;12.258;2023-12-07T00:13:34;4.20;62.00
1680;DHT22;838;51.794;12.258;2023-12-07T00:16:00;4.30;62.80
1680;DHT22;838;51.794;12.258;2023-12-07T00:18:26;4.30;61.00
1680;DHT22;838;51.794;12.258;2023-12-07T00:20:51;4.20;60.50
1680;DHT22;838;51.794;12.258;2023-12-07T00:23:17;4.00;62.30
1680;DHT22;838;51.794;12.258;2023-12-07T00:25:43;3.90;64.80
1680;DHT22;838;51.794;12.258;2023-12-07T00:28:08;3.90;67.70
1680;DHT22;838;51.794;12.258;2023-12-07T00:30:34;3.90;67.40
1680;DHT22;838;51.794;12.258;2023-12-07T00:33:01;3.90;67.50
1680;DHT22;838;51.794;12.258;2023-12-07T00:35:26;4.00;67.90
1680;DHT22;838;51.794;12.258;2023-12-07T00:37:57;4.00;67.10
1680;DHT22;838;51.794;12.258;2023-12-07T00:40:23;3.90;66.20
1680;DHT22;838;51.794;12.258;2023-12-07T00:42:49;3.90;67.50
1680;DHT22;838;51.794;12.258;2023-12-07T00:45:15;3.90;66.70
1680;DHT22;838;51.794;12.258;2023-12-07T00:47:41;3.90;68.90
1680;DHT22;838;51.794;12.258;2023-12-07T00:50:08;3.90;67.70
1680;DHT22;838;51.794;12.258;2023-12-07T00:52:33;3.90;69.80
1680;DHT22;838;51.794;12.258;2023-12-07T00:54:59;3.90;70.20
1680;DHT22;838;51.794;12.258;2023-12-07T00:57:25;3.90;69.30
1680;DHT22;838;51.794;12.258;2023-12-07T00:59:51;4.00;69.10
1680;DHT22;838;51.794;12.258;2023-12-07T01:02:17;3.90;68.60
1680;DHT22;838;51.794;12.258;2023-12-07T01:04:43;4.00;69.90
1680;DHT22;838;51.794;12.258;2023-12-07T01:07:09;3.90;69.10
1680;DHT22;838;51.794;12.258;2023-12-07T01:09:35;3.90;69.30
1680;DHT22;838;51.794;12.258;2023-12-07T01:12:01;3.90;70.80
1680;DHT22;838;51.794;12.258;2023-12-07T01:14:27;3.90;71.00
1680;DHT22;838;51.794;12.258;2023-12-07T01:16:53;3.90;70.80
1680;DHT22;838;51.794;12.258;2023-12-07T01:19:18;3.90;69.30
1680;DHT22;838;51.794;12.258;2023-12-07T01:21:44;3.90;69.70
1680;DHT22;838;51.794;12.258;2023-12-07T01:24:10;4.00;71.50
1680;DHT22;838;51.794;12.258;2023-12-07T01:26:35;4.40;70.60
1680;DHT22;838;51.794;12.258;2023-12-07T01:29:01;4.40;67.20
1680;DHT22;838;51.794;12.258;2023-12-07T01:31:28;4.60;61.90
1680;DHT22;838;51.794;12.258;2023-12-07T01:33:54;4.60;61.70
1680;DHT22;838;51.794;12.258;2023-12-07T01:36:19;4.70;60.90
1680;DHT22;838;51.794;12.258;2023-12-07T01:38:46;5.00;58.60
1680;DHT22;838;51.794;12.258;2023-12-07T01:41:12;5.10;53.50
1680;DHT22;838;51.794;12.258;2023-12-07T01:43:38;4.90;53.30
1680;DHT22;838;51.794;12.258;2023-12-07T01:46:10;4.70;57.80
1680;DHT22;838;51.794;12.258;2023-12-07T01:48:36;4.70;57.30
1680;DHT22;838;51.794;12.258;2023-12-07T01:51:01;4.80;56.90
1680;DHT22;838;51.794;12.258;2023-12-07T01:53:28;4.90;55.70
1680;DHT22;838;51.794;12.258;2023-12-07T01:55:54;4.90;54.60
1680;DHT22;838;51.794;12.258;2023-12-07T01:58:20;5.00;54.60
1680;DHT22;838;51.794;12.258;2023-12-07T02:00:47;5.20;54.20
1680;DHT22;838;51.794;12.258;2023-12-07T02:03:13;5.40;50.20
1680;DHT22;838;51.794;12.258;2023-12-07T02:05:43;5.40;47.30
1680;DHT22;838;51.794;12.258;2023-12-07T02:08:11;5.30;47.20
1680;DHT22;838;51.794;12.258;2023-12-07T02:10:37;5.20;47.10
1680;DHT22;838;51.794;12.258;2023-12-07T02:13:03;5.10;49.80
1680;DHT22;838;51.794;12.258;2023-12-07T02:15:29;5.10;49.30
1680;DHT22;838;51.794;12.258;2023-12-07T02:20:39;4.80;52.20
1680;DHT22;838;51.794;12.258;2023-12-07T02:23:08;4.70;56.70
1680;DHT22;838;51.794;12.258;2023-12-07T02:25:53;4.60;57.40
1680;DHT22;838;51.794;12.258;2023-12-07T02:28:19;4.60;54.90
1680;DHT22;838;51.794;12.258;2023-12-07T02:30:45;4.60;58.00
1680;DHT22;838;51.794;12.258;2023-12-07T02:33:11;4.70;57.80
1680;DHT22;838;51.794;12.258;2023-12-07T02:35:38;4.80;56.00
1680;DHT22;838;51.794;12.258;2023-12-07T02:38:06;4.70;56.10
1680;DHT22;838;51.794;12.258;2023-12-07T02:40:33;4.80;57.80
1680;DHT22;838;51.794;12.258;2023-12-07T02:43:00;4.80;55.50
1680;DHT22;838;51.794;12.258;2023-12-07T02:45:27;4.80;57.00
1680;DHT22;838;51.794;12.258;2023-12-07T02:47:53;4.80;55.40
1680;DHT22;838;51.794;12.258;2023-12-07T02:50:19;4.80;53.40
1680;DHT22;838;51.794;12.258;2023-12-07T02:52:45;4.60;57.10
1680;DHT22;838;51.794;12.258;2023-12-07T02:55:11;4.70;58.20
1680;DHT22;838;51.794;12.258;2023-12-07T02:57:37;4.90;57.30
1680;DHT22;838;51.794;12.258;2023-12-07T03:00:04;5.00;54.50
1680;DHT22;838;51.794;12.258;2023-12-07T03:02:37;5.10;53.90
1680;DHT22;838;51.794;12.258;2023-12-07T03:05:04;5.30;52.60
1680;DHT22;838;51.794;12.258;2023-12-07T03:07:30;5.40;50.60
1680;DHT22;838;51.794;12.258;2023-12-07T03:09:55;5.30;48.60
1680;DHT22;838;51.794;12.258;2023-12-07T03:12:21;5.30;49.70
1680;DHT22;838;51.794;12.258;2023-12-07T03:14:48;5.40;49.10
1680;DHT22;838;51.794;12.258;2023-12-07T03:17:14;5.40;49.10
1680;DHT22;838;51.794;12.258;2023-12-07T03:19:40;5.40;48.90
1680;DHT22;838;51.794;12.258;2023-12-07T03:22:07;5.30;48.70
1680;DHT22;838;51.794;12.258;2023-12-07T03:24:36;5.00;54.10
1680;DHT22;838;51.794;12.258;2023-12-07T03:27:02;4.80;53.70
1680;DHT22;838;51.794;12.258;2023-12-07T03:29:28;4.70;55.50
1680;DHT22;838;51.794;12.258;2023-12-07T03:31:54;4.40;59.60
1680;DHT22;838;51.794;12.258;2023-12-07T03:34:19;4.60;64.80
1680;DHT22;838;51.794;12.258;2023-12-07T03:36:46;4.80;57.40
1680;DHT22;838;51.794;12.258;2023-12-07T03:39:14;4.70;61.40
1680;DHT22;838;51.794;12.258;2023-12-07T03:41:39;4.80;59.50
1680;DHT22;838;51.794;12.258;2023-12-07T03:44:05;4.80;57.40
1680;DHT22;838;51.794;12.258;2023-12-07T03:46:31;4.80;56.70
1680;DHT22;838;51.794;12.258;2023-12-07T03:48:57;4.60;60.50
1680;DHT22;838;51.794;12.258;2023-12-07T03:51:22;4.70;64.80
1680;DHT22;838;51.794;12.258;2023-12-07T03:53:48;4.90;62.00
1680;DHT22;838;51.794;12.258;2023-12-07T03:56:28;5.00;57.60
1680;DHT22;838;51.794;12.258;2023-12-07T03:58:54;5.00;58.40
1680;DHT22;838;51.794;12.258;2023-12-07T04:01:23;5.00;58.10
1680;DHT22;838;51.794;12.258;2023-12-07T04:03:49;5.10;57.80
1680;DHT22;838;51.794;12.258;2023-12-07T04:06:15;5.10;55.80
1680;DHT22;838;51.794;12.258;2023-12-07T04:08:42;5.20;52.40
1680;DHT22;838;51.794;12.258;2023-12-07T04:11:07;5.20;54.90
1680;DHT22;838;51.794;12.258;2023-12-07T04:13:33;5.10;53.00
1680;DHT22;838;51.794;12.258;2023-12-07T04:15:59;5.00;57.20
1680;DHT22;838;51.794;12.258;2023-12-07T04:18:24;5.10;57.80
1680;DHT22;838;51.794;12.258;2023-12-07T04:20:50;5.20;53.60
1680;DHT22;838;51.794;12.258;2023-12-07T04:23:16;5.20;52.20
1680;DHT22;838;51.794;12.258;2023-12-07T04:25:41;5.20;53.60
1680;DHT22;838;51.794;12.258;2023-12-07T04:28:07;5.10;54.00
1680;DHT22;838;51.794;12.258;2023-12-07T04:30:33;5.00;52.10
1680;DHT22;838;51.794;12.258;2023-12-07T04:32:58;4.80;58.40
1680;DHT22;838;51.794;12.258;2023-12-07T04:35:24;4.70;59.70
1680;DHT22;838;51.794;12.258;2023-12-07T04:37:50;4.70;59.70
1680;DHT22;838;51.794;12.258;2023-12-07T04:40:15;4.80;60.70
1680;DHT22;838;51.794;12.258;2023-12-07T04:42:41;4.90;61.60
1680;DHT22;838;51.794;12.258;2023-12-07T04:45:07;5.00;59.70
1680;DHT22;838;51.794;12.258;2023-12-07T04:47:33;5.10;59.20
1680;DHT22;838;51.794;12.258;2023-12-07T04:49:59;5.30;57.30
1680;DHT22;838;51.794;12.258;2023-12-07T04:52:25;5.40;52.30
1680;DHT22;838;51.794;12.258;2023-12-07T04:54:50;5.50;50.60
1680;DHT22;838;51.794;12.258;2023-12-07T04:57:16;5.40;53.70
1680;DHT22;838;51.794;12.258;2023-12-07T04:59:42;5.50;50.70
1680;DHT22;838;51.794;12.258;2023-12-07T05:02:15;5.60;49.00
1680;DHT22;838;51.794;12.258;2023-12-07T05:04:42;5.50;50.90
1680;DHT22;838;51.794;12.258;2023-12-07T05:07:08;5.70;49.80
1680;DHT22;838;51.794;12.258;2023-12-07T05:09:33;5.80;47.30
1680;DHT22;838;51.794;12.258;2023-12-07T05:11:59;5.90;45.80
1680;DHT22;838;51.794;12.258;2023-12-07T05:14:25;6.10;43.60
1680;DHT22;838;51.794;12.258;2023-12-07T05:16:51;6.10;42.40
1680;DHT22;838;51.794;12.258;2023-12-07T05:19:25;6.20;41.00
1680;DHT22;838;51.794;12.258;2023-12-07T05:21:51;6.30;40.20
1680;DHT22;838;51.794;12.258;2023-12-07T05:24:17;6.30;40.20
1680;DHT22;838;51.794;12.258;2023-12-07T05:26:43;6.20;38.40
1680;DHT22;838;51.794;12.258;2023-12-07T05:29:09;6.20;39.70
1680;DHT22;838;51.794;12.258;2023-12-07T05:31:36;6.10;40.20
1680;DHT22;838;51.794;12.258;2023-12-07T05:34:02;6.10;39.70
1680;DHT22;838;51.794;12.258;2023-12-07T05:36:28;6.10;38.90
1680;DHT22;838;51.794;12.258;2023-12-07T05:38:53;6.00;38.60
1680;DHT22;838;51.794;12.258;2023-12-07T05:41:19;6.00;39.90
1680;DHT22;838;51.794;12.258;2023-12-07T05:43:45;5.90;43.60
1680;DHT22;838;51.794;12.258;2023-12-07T05:46:11;5.60;43.40
1680;DHT22;838;51.794;12.258;2023-12-07T05:48:36;5.50;46.20
1680;DHT22;838;51.794;12.258;2023-12-07T05:51:03;5.40;47.00
1680;DHT22;838;51.794;12.258;2023-12-07T05:53:29;5.30;50.20
1680;DHT22;838;51.794;12.258;2023-12-07T05:55:56;5.40;50.60
1680;DHT22;838;51.794;12.258;2023-12-07T05:58:22;5.30;50.20
1680;DHT22;838;51.794;12.258;2023-12-07T06:00:48;5.10;51.90
1680;DHT22;838;51.794;12.258;2023-12-07T06:03:13;4.90;56.20
1680;DHT22;838;51.794;12.258;2023-12-07T06:05:40;4.60;56.70
1680;DHT22;838;51.794;12.258;2023-12-07T06:08:06;4.40;61.80
1680;DHT22;838;51.794;12.258;2023-12-07T06:10:32;4.30;66.30
1680;DHT22;838;51.794;12.258;2023-12-07T06:12:58;4.30;68.30
1680;DHT22;838;51.794;12.258;2023-12-07T06:15:26;4.30;69.10
1680;DHT22;838;51.794;12.258;2023-12-07T06:17:54;4.20;67.30
1680;DHT22;838;51.794;12.258;2023-12-07T06:20:20;4.10;69.60
1680;DHT22;838;51.794;12.258;2023-12-07T06:22:45;4.10;72.40
1680;DHT22;838;51.794;12.258;2023-12-07T06:25:11;4.50;71.70
1680;DHT22;838;51.794;12.258;2023-12-07T06:27:38;4.70;65.90
1680;DHT22;838;51.794;12.258;2023-12-07T06:30:05;4.60;64.50
1680;DHT22;838;51.794;12.258;2023-12-07T06:32:34;4.50;64.70
1680;DHT22;838;51.794;12.258;2023-12-07T06:35:00;4.50;63.80
1680;DHT22;838;51.794;12.258;2023-12-07T06:37:26;4.50;66.40
1680;DHT22;838;51.794;12.258;2023-12-07T06:39:52;4.60;65.70
1680;DHT22;838;51.794;12.258;2023-12-07T06:42:18;4.70;62.50
1680;DHT22;838;51.794;12.258;2023-12-07T06:44:45;4.70;63.30
1680;DHT22;838;51.794;12.258;2023-12-07T06:47:11;4.80;62.80
1680;DHT22;838;51.794;12.258;2023-12-07T06:49:37;4.70;57.00
1680;DHT22;838;51.794;12.258;2023-12-07T06:52:03;4.60;60.00
1680;DHT22;838;51.794;12.258;2023-12-07T06:54:28;4.50;63.00
1680;DHT22;838;51.794;12.258;2023-12-07T06:56:54;4.70;63.80
1680;DHT22;838;51.794;12.258;2023-12-07T06:59:20;4.70;63.10
1680;DHT22;838;51.794;12.258;2023-12-07T07:01:45;4.70;63.50
1680;DHT22;838;51.794;12.258;2023-12-07T07:04:11;4.70;61.80
1680;DHT22;838;51.794;12.258;2023-12-07T07:06:39;4.80;62.50
1680;DHT22;838;51.794;12.258;2023-12-07T07:09:05;4.80;61.20
1680;DHT22;838;51.794;12.258;2023-12-07T07:11:31;4.80;59.90
1680;DHT22;838;51.794;12.258;2023-12-07T07:13:56;5.00;60.00
1680;DHT22;838;51.794;12.258;2023-12-07T07:16:22;5.00;58.40
1680;DHT22;838;51.794;12.258;2023-12-07T07:18:47;5.10;57.40
1680;DHT22;838;51.794;12.258;2023-12-07T07:21:13;5.30;54.80
1680;DHT22;838;51.794;12.258;2023-12-07T07:23:39;5.50;52.40
1680;DHT22;838;51.794;12.258;2023-12-07T07:26:05;5.60;48.30
1680;DHT22;838;51.794;12.258;2023-12-07T07:28:31;5.60;50.20
1680;DHT22;838;51.794;12.258;2023-12-07T07:30:56;5.70;48.50
1680;DHT22;838;51.794;12.258;2023-12-07T07:33:22;5.60;47.60
1680;DHT22;838;51.794;12.258;2023-12-07T07:35:48;5.70;46.50
1680;DHT22;838;51.794;12.258;2023-12-07T07:38:13;5.50;47.80
1680;DHT22;838;51.794;12.258;2023-12-07T07:40:40;5.70;45.70
1680;DHT22;838;51.794;12.258;2023-12-07T07:43:07;5.60;47.10
1680;DHT22;838;51.794;12.258;2023-12-07T07:45:33;5.60;47.10
1680;DHT22;838;51.794;12.258;2023-12-07T07:47:58;5.60;48.70
1680;DHT22;838;51.794;12.258;2023-12-07T07:50:24;5.60;46.80
1680;DHT22;838;51.794;12.258;2023-12-07T07:52:49;5.70;44.90
1680;DHT22;838;51.794;12.258;2023-12-07T07:55:15;5.70;47.10
1680;DHT22;838;51.794;12.258;2023-12-07T07:57:41;5.80;45.60
1680;DHT22;838;51.794;12.258;2023-12-07T08:00:08;5.90;44.70
1680;DHT22;838;51.794;12.258;2023-12-07T08:02:34;6.00;41.40
1680;DHT22;838;51.794;12.258;2023-12-07T08:05:02;5.90;43.50
1680;DHT22;838;51.794;12.258;2023-12-07T08:07:27;5.80;45.60
1680;DHT22;838;51.794;12.258;2023-12-07T08:09:53;5.90;44.50
1680;DHT22;838;51.794;12.258;2023-12-07T08:12:19;5.90;44.90
1680;DHT22;838;51.794;12.258;2023-12-07T08:14:44;5.90;43.40
1680;DHT22;838;51.794;12.258;2023-12-07T08:17:11;5.60;46.90
1680;DHT22;838;51.794;12.258;2023-12-07T08:19:37;5.60;47.90
1680;DHT22;838;51.794;12.258;2023-12-07T08:22:05;5.80;48.00
1680;DHT22;838;51.794;12.258;2023-12-07T08:24:31;5.80;46.50
1680;DHT22;838;51.794;12.258;2023-12-07T08:26:57;5.90;45.70
1680;DHT22;838;51.794;12.258;2023-12-07T08:29:23;6.00;43.90
1680;DHT22;838;51.794;12.258;2023-12-07T08:31:48;6.00;44.70
1680;DHT22;838;51.794;12.258;2023-12-07T08:34:14;6.00;42.70
1680;DHT22;838;51.794;12.258;2023-12-07T08:36:40;6.00;42.80
1680;DHT22;838;51.794;12.258;2023-12-07T08:39:05;6.00;43.90
1680;DHT22;838;51.794;12.258;2023-12-07T08:41:35;6.10;42.80
1680;DHT22;838;51.794;12.258;2023-12-07T08:44:02;6.10;41.30
1680;DHT22;838;51.794;12.258;2023-12-07T08:46:27;6.00;40.20
1680;DHT22;838;51.794;12.258;2023-12-07T08:48:53;5.90;43.00
1680;DHT22;838;51.794;12.258;2023-12-07T08:51:19;6.00;43.80
1680;DHT22;838;51.794;12.258;2023-12-07T08:53:45;6.00;42.20
1680;DHT22;838;51.794;12.258;2023-12-07T08:56:11;6.00;42.90
1680;DHT22;838;51.794;12.258;2023-12-07T08:58:39;6.00;42.90
1680;DHT22;838;51.794;12.258;2023-12-07T09:01:05;5.90;42.70
1680;DHT22;838;51.794;12.258;2023-12-07T09:03:33;5.80;45.10
1680;DHT22;838;51.794;12.258;2023-12-07T09:06:00;5.80;45.70
1680;DHT22;838;51.794;12.258;2023-12-07T09:08:26;5.70;47.00
1680;DHT22;838;51.794;12.258;2023-12-07T09:10:52;5.90;45.70
1680;DHT22;838;51.794;12.258;2023-12-07T09:13:18;6.20;44.30
1680;DHT22;838;51.794;12.258;2023-12-07T09:15:44;6.20;41.50
1680;DHT22;838;51.794;12.258;2023-12-07T09:18:10;6.40;40.40
1680;DHT22;838;51.794;12.258;2023-12-07T09:20:42;6.40;39.00
1680;DHT22;838;51.794;12.258;2023-12-07T09:23:15;6.30;39.30
1680;DHT22;838;51.794;12.258;2023-12-07T09:25:41;6.30;39.60
1680;DHT22;838;51.794;12.258;2023-12-07T09:28:07;6.20;42.50
1680;DHT22;838;51.794;12.258;2023-12-07T09:30:34;6.30;41.50
1680;DHT22;838;51.794;12.258;2023-12-07T09:33:00;6.40;40.90
1680;DHT22;838;51.794;12.258;2023-12-07T09:35:28;6.50;38.90
1680;DHT22;838;51.794;12.258;2023-12-07T09:37:54;6.50;39.90
1680;DHT22;838;51.794;12.258;2023-12-07T09:40:21;6.60;39.10
1680;DHT22;838;51.794;12.258;2023-12-07T09:42:47;6.60;38.30
1680;DHT22;838;51.794;12.258;2023-12-07T09:45:15;6.60;35.80
1680;DHT22;838;51.794;12.258;2023-12-07T09:47:42;6.60;37.40
1680;DHT22;838;51.794;12.258;2023-12-07T09:50:09;6.60;39.20
1680;DHT22;838;51.794;12.258;2023-12-07T09:52:35;6.60;37.90
1680;DHT22;838;51.794;12.258;2023-12-07T09:55:05;6.50;36.70
1680;DHT22;838;51.794;12.258;2023-12-07T09:57:32;6.50;39.20
1680;DHT22;838;51.794;12.258;2023-12-07T09:59:58;6.50;38.20
1680;DHT22;838;51.794;12.258;2023-12-07T10:02:24;6.50;40.90
1680;DHT22;838;51.794;12.258;2023-12-07T10:05:07;6.50;39.10
1680;DHT22;838;51.794;12.258;2023-12-07T10:07:34;6.60;40.80
1680;DHT22;838;51.794;12.258;2023-12-07T10:10:01;6.70;37.50
1680;DHT22;838;51.794;12.258;2023-12-07T10:12:29;6.70;38.80
1680;DHT22;838;51.794;12.258;2023-12-07T10:14:55;6.90;37.70
1680;DHT22;838;51.794;12.258;2023-12-07T10:17:20;6.80;34.60
1680;DHT22;838;51.794;12.258;2023-12-07T10:19:46;6.70;39.00
1680;DHT22;838;51.794;12.258;2023-12-07T10:22:15;6.80;37.00
1680;DHT22;838;51.794;12.258;2023-12-07T10:24:41;6.90;37.60
1680;DHT22;838;51.794;12.258;2023-12-07T10:27:08;6.90;35.70
1680;DHT22;838;51.794;12.258;2023-12-07T10:29:38;6.90;36.50
1680;DHT22;838;51.794;12.258;2023-12-07T10:32:04;6.80;36.50
1680;DHT22;838;51.794;12.258;2023-12-07T10:34:31;6.80;36.70
1680;DHT22;838;51.794;12.258;2023-12-07T10:36:58;6.80;37.10
1680;DHT22;838;51.794;12.258;2023-12-07T10:39:24;7.00;36.50
1680;DHT22;838;51.794;12.258;2023-12-07T10:41:55;7.00;35.20
1680;DHT22;838;51.794;12.258;2023-12-07T10:44:22;7.00;37.60
1680;DHT22;838;51.794;12.258;2023-12-07T10:46:50;7.00;36.00
1680;DHT22;838;51.794;12.258;2023-12-07T10:49:19;7.10;36.10
1680;DHT22;838;51.794;12.258;2023-12-07T10:51:55;7.10;35.30
1680;DHT22;838;51.794;12.258;2023-12-07T10:54:30;7.20;35.20
1680;DHT22;838;51.794;12.258;2023-12-07T10:56:57;7.10;35.20
1680;DHT22;838;51.794;12.258;2023-12-07T10:59:29;7.00;36.80
1680;DHT22;838;51.794;12.258;2023-12-07T11:01:57;6.80;36.90
1680;DHT22;838;51.794;12.258;2023-12-07T11:04:23;6.50;39.70
1680;DHT22;838;51.794;12.258;2023-12-07T11:06:52;6.30;43.40
1680;DHT22;838;51.794;12.258;2023-12-07T11:09:27;6.20;44.90
1680;DHT22;838;51.794;12.258;2023-12-07T11:12:18;6.30;46.20
1680;DHT22;838;51.794;12.258;2023-12-07T11:14:44;6.30;44.80
1680;DHT22;838;51.794;12.258;2023-12-07T11:17:10;6.50;46.10
1680;DHT22;838;51.794;12.258;2023-12-07T11:22:03;6.50;42.40
1680;DHT22;838;51.794;12.258;2023-12-07T11:24:29;6.40;43.40
1680;DHT22;838;51.794;12.258;2023-12-07T11:26:56;6.30;46.80
1680;DHT22;838;51.794;12.258;2023-12-07T11:29:24;6.30;46.80
1680;DHT22;838;51.794;12.258;2023-12-07T11:31:51;6.10;49.90
1680;DHT22;838;51.794;12.258;2023-12-07T11:34:39;6.10;49.10
1680;DHT22;838;51.794;12.258;2023-12-07T11:37:15;6.20;49.70
1680;DHT22;838;51.794;12.258;2023-12-07T11:39:44;6.40;49.60
1680;DHT22;838;51.794;12.258;2023-12-07T11:42:18;6.50;47.10
1680;DHT22;838;51.794;12.258;2023-12-07T11:44:47;6.70;42.90
1680;DHT22;838;51.794;12.258;2023-12-07T11:47:19;6.80;41.80
1680;DHT22;838;51.794;12.258;2023-12-07T11:49:46;6.70;43.80
1680;DHT22;838;51.794;12.258;2023-12-07T11:52:16;6.60;42.50
1680;DHT22;838;51.794;12.258;2023-12-07T11:54:44;6.80;44.60
1680;DHT22;838;51.794;12.258;2023-12-07T11:57:10;6.90;42.80
1680;DHT22;838;51.794;12.258;2023-12-07T11:59:36;7.00;42.20
1680;DHT22;838;51.794;12.258;2023-12-07T12:02:02;7.00;42.50
1680;DHT22;838;51.794;12.258;2023-12-07T12:04:28;7.10;38.80
1680;DHT22;838;51.794;12.258;2023-12-07T12:06:54;7.10;40.40
1680;DHT22;838;51.794;12.258;2023-12-07T12:09:20;7.20;36.50
1680;DHT22;838;51.794;12.258;2023-12-07T12:11:49;7.20;38.00
1680;DHT22;838;51.794;12.258;2023-12-07T12:14:16;7.40;36.50
1680;DHT22;838;51.794;12.258;2023-12-07T12:16:51;7.40;36.80
1680;DHT22;838;51.794;12.258;2023-12-07T12:19:18;7.30;36.70
1680;DHT22;838;51.794;12.258;2023-12-07T12:21:43;7.30;33.30
1680;DHT22;838;51.794;12.258;2023-12-07T12:24:12;7.30;38.00
1680;DHT22;838;51.794;12.258;2023-12-07T12:26:42;7.20;35.90
1680;DHT22;838;51.794;12.258;2023-12-07T12:29:08;7.20;37.20
1680;DHT22;838;51.794;12.258;2023-12-07T12:31:35;7.20;39.20
1680;DHT22;838;51.794;12.258;2023-12-07T12:34:02;7.30;37.70
1680;DHT22;838;51.794;12.258;2023-12-07T12:36:27;7.20;38.70
1680;DHT22;838;51.794;12.258;2023-12-07T12:38:55;7.20;38.60
1680;DHT22;838;51.794;12.258;2023-12-07T12:41:24;7.20;36.70
1680;DHT22;838;51.794;12.258;2023-12-07T12:43:51;7.10;38.70
1680;DHT22;838;51.794;12.258;2023-12-07T12:46:17;7.00;39.70
1680;DHT22;838;51.794;12.258;2023-12-07T12:51:19;7.30;38.00
1680;DHT22;838;51.794;12.258;2023-12-07T12:53:45;7.10;37.50
1680;DHT22;838;51.794;12.258;2023-12-07T12:56:18;6.90;39.40
1680;DHT22;838;51.794;12.258;2023-12-07T12:58:44;7.00;44.90
1680;DHT22;838;51.794;12.258;2023-12-07T13:01:10;7.10;41.10
1680;DHT22;838;51.794;12.258;2023-12-07T13:03:36;7.00;43.50
1680;DHT22;838;51.794;12.258;2023-12-07T13:06:01;7.10;44.20
1680;DHT22;838;51.794;12.258;2023-12-07T13:08:27;7.30;42.40
1680;DHT22;838;51.794;12.258;2023-12-07T13:10:53;7.40;40.70
1680;DHT22;838;51.794;12.258;2023-12-07T13:13:18;7.50;38.60
1680;DHT22;838;51.794;12.258;2023-12-07T13:15:44;7.50;37.90
1680;DHT22;838;51.794;12.258;2023-12-07T13:18:10;7.50;38.60
1680;DHT22;838;51.794;12.258;2023-12-07T13:20:35;7.60;36.50
1680;DHT22;838;51.794;12.258;2023-12-07T13:23:01;7.60;34.70
1680;DHT22;838;51.794;12.258;2023-12-07T13:25:27;7.40;34.20
1680;DHT22;838;51.794;12.258;2023-12-07T13:27:53;7.40;34.60
1680;DHT22;838;51.794;12.258;2023-12-07T13:30:19;7.40;35.40
1680;DHT22;838;51.794;12.258;2023-12-07T13:32:45;7.30;33.70
1680;DHT22;838;51.794;12.258;2023-12-07T13:35:11;7.30;35.40
1680;DHT22;838;51.794;12.258;2023-12-07T13:37:38;7.30;36.10
1680;DHT22;838;51.794;12.258;2023-12-07T13:40:05;7.40;34.70
1680;DHT22;838;51.794;12.258;2023-12-07T13:42:35;7.40;34.30
1680;DHT22;838;51.794;12.258;2023-12-07T13:45:01;7.40;33.30
1680;DHT22;838;51.794;12.258;2023-12-07T13:47:28;7.70;32.30
1680;DHT22;838;51.794;12.258;2023-12-07T13:50:00;7.70;29.60
1680;DHT22;838;51.794;12.258;2023-12-07T13:52:27;7.50;32.00
1680;DHT22;838;51.794;12.258;2023-12-07T13:54:54;7.50;32.40
1680;DHT22;838;51.794;12.258;2023-12-07T13:57:21;7.50;30.70
1680;DHT22;838;51.794;12.258;2023-12-07T13:59:47;7.40;33.10
1680;DHT22;838;51.794;12.258;2023-12-07T14:02:13;7.40;33.50
1680;DHT22;838;51.794;12.258;2023-12-07T14:04:39;7.40;32.00
1680;DHT22;838;51.794;12.258;2023-12-07T14:09:34;7.50;29.40
1680;DHT22;838;51.794;12.258;2023-12-07T14:12:00;7.40;29.40
1680;DHT22;838;51.794;12.258;2023-12-07T14:14:25;7.40;28.40
1680;DHT22;838;51.794;12.258;2023-12-07T14:16:51;7.30;28.20
1680;DHT22;838;51.794;12.258;2023-12-07T14:19:17;7.10;30.70
1680;DHT22;838;51.794;12.258;2023-12-07T14:21:42;7.10;29.90
1680;DHT22;838;51.794;12.258;2023-12-07T14:24:09;7.00;30.60
1680;DHT22;838;51.794;12.258;2023-12-07T14:26:34;6.90;30.90
1680;DHT22;838;51.794;12.258;2023-12-07T14:29:01;6.80;33.10
1680;DHT22;838;51.794;12.258;2023-12-07T14:31:26;6.80;33.50
1680;DHT22;838;51.794;12.258;2023-12-07T14:33:52;6.80;31.30
1680;DHT22;838;51.794;12.258;2023-12-07T14:36:18;6.90;30.40
1680;DHT22;838;51.794;12.258;2023-12-07T14:38:45;6.90;28.10
1680;DHT22;838;51.794;12.258;2023-12-07T14:41:10;6.80;32.00
1680;DHT22;838;51.794;12.258;2023-12-07T14:43:38;6.70;31.60
1680;DHT22;838;51.794;12.258;2023-12-07T14:46:06;6.50;32.80
1680;DHT22;838;51.794;12.258;2023-12-07T14:48:32;6.10;35.30
1680;DHT22;838;51.794;12.258;2023-12-07T14:50:58;5.90;38.80
1680;DHT22;838;51.794;12.258;2023-12-07T14:53:24;6.00;37.70
1680;DHT22;838;51.794;12.258;2023-12-07T14:55:51;6.00;37.10
1680;DHT22;838;51.794;12.258;2023-12-07T14:58:17;5.90;37.80
1680;DHT22;838;51.794;12.258;2023-12-07T15:00:43;5.90;37.70
1680;DHT22;838;51.794;12.258;2023-12-07T15:03:08;5.80;38.10
1680;DHT22;838;51.794;12.258;2023-12-07T15:05:34;5.70;38.30
1680;DHT22;838;51.794;12.258;2023-12-07T15:08:00;5.60;37.50
1680;DHT22;838;51.794;12.258;2023-12-07T15:10:25;5.40;40.10
1680;DHT22;838;51.794;12.258;2023-12-07T15:12:51;5.20;42.80
1680;DHT22;838;51.794;12.258;2023-12-07T15:15:17;5.00;45.00
1680;DHT22;838;51.794;12.258;2023-12-07T15:17:42;4.80;50.00
1680;DHT22;838;51.794;12.258;2023-12-07T15:20:09;4.70;51.30
1680;DHT22;838;51.794;12.258;2023-12-07T15:22:35;4.80;51.20
1680;DHT22;838;51.794;12.258;2023-12-07T15:25:01;4.90;50.10
1680;DHT22;838;51.794;12.258;2023-12-07T15:27:27;5.00;48.30
1680;DHT22;838;51.794;12.258;2023-12-07T15:29:52;5.10;47.70
1680;DHT22;838;51.794;12.258;2023-12-07T15:32:18;5.10;45.00
1680;DHT22;838;51.794;12.258;2023-12-07T15:34:44;5.00;44.10
1680;DHT22;838;51.794;12.258;2023-12-07T15:37:10;5.00;46.10
1680;DHT22;838;51.794;12.258;2023-12-07T15:39:35;5.00;46.10
1680;DHT22;838;51.794;12.258;2023-12-07T15:42:01;5.00;46.00
1680;DHT22;838;51.794;12.258;2023-12-07T15:44:27;5.10;45.50
1680;DHT22;838;51.794;12.258;2023-12-07T15:46:53;5.10;44.60
1680;DHT22;838;51.794;12.258;2023-12-07T15:49:18;5.10;45.00
1680;DHT22;838;51.794;12.258;2023-12-07T15:51:44;5.00;45.30
1680;DHT22;838;51.794;12.258;2023-12-07T15:54:10;4.90;44.70
1680;DHT22;838;51.794;12.258;2023-12-07T15:56:41;4.80;45.30
1680;DHT22;838;51.794;12.258;2023-12-07T15:59:07;4.90;45.10
1680;DHT22;838;51.794;12.258;2023-12-07T16:01:33;5.10;43.40
1680;DHT22;838;51.794;12.258;2023-12-07T16:03:59;5.30;40.70
1680;DHT22;838;51.794;12.258;2023-12-07T16:06:25;5.20;39.10
1680;DHT22;838;51.794;12.258;2023-12-07T16:08:51;5.00;41.60
1680;DHT22;838;51.794;12.258;2023-12-07T16:11:16;4.90;43.00
1680;DHT22;838;51.794;12.258;2023-12-07T16:13:42;4.80;43.70
1680;DHT22;838;51.794;12.258;2023-12-07T16:16:08;4.90;43.00
1680;DHT22;838;51.794;12.258;2023-12-07T16:18:33;4.70;42.70
1680;DHT22;838;51.794;12.258;2023-12-07T16:20:59;4.50;44.80
1680;DHT22;838;51.794;12.258;2023-12-07T16:23:25;4.20;48.00